Time;durP1;ratioP1;P1;durP2;ratioP2;P2;SDS_P1;SDS_P2;PMS_P1;PMS_P2;Temp;Humidity;BMP_temperature;BMP_pressure;BME280_temperature;BME280_humidity;BME280_pressure;Samples;Min_cycle;Max_cycle;Signal;HPM_P1;HPM_P2
2023/05/24 00:00:20;;;;;;;;;;;15.90;95.80;;;;;;5001096;28;20012;-96
2023/05/24 00:02:47;;;;;;;;;;;15.90;95.80;;;;;;5009123;28;19909;-96
2023/05/24 00:05:36;;;;;;;;;;;15.90;95.80;;;;;;4995886;28;19937;-96
2023/05/24 00:08:02;;;;;;;;;;;15.90;95.80;;;;;;5002533;28;19910;-96
2023/05/24 00:10:48;;;;;;;;;;;15.90;95.80;;;;;;4995860;28;19949;-96
2023/05/24 00:13:14;;;;;;;;;;;15.80;95.80;;;;;;4988705;28;19936;-95
2023/05/24 00:16:00;;;;;;;;;;;15.80;95.80;;;;;;5013527;28;19910;-95
2023/05/24 00:18:26;;;;;;;;;;;15.90;95.80;;;;;;4995659;28;19909;-96
2023/05/24 00:20:55;;;;;;;;;;;15.80;95.80;;;;;;4995653;28;19983;-95
2023/05/24 00:23:22;;;;;;;;;;;15.80;95.80;;;;;;5013272;28;19917;-95
2023/05/24 00:25:47;;;;;;;;;;;15.80;95.80;;;;;;4995750;28;19909;-95
2023/05/24 00:28:16;;;;;;;;;;;16.20;95.80;;;;;;4995346;28;19909;-96
2023/05/24 00:30:42;;;;;;;;;;;15.80;95.70;;;;;;4997117;28;19953;-95
2023/05/24 00:33:07;;;;;;;;;;;15.80;95.80;;;;;;4995615;28;20429;-95
2023/05/24 00:35:33;;;;;;;;;;;16.00;95.80;;;;;;4996104;28;19952;-95
2023/05/24 00:37:59;;;;;;;;;;;15.80;95.70;;;;;;4997774;28;19913;-96
2023/05/24 00:40:25;;;;;;;;;;;15.80;95.70;;;;;;4995279;28;19922;-96
2023/05/24 00:42:51;;;;;;;;;;;15.80;95.70;;;;;;4995495;28;19910;-95
2023/05/24 00:45:17;;;;;;;;;;;15.80;95.70;;;;;;4995451;28;19960;-96
2023/05/24 00:47:44;;;;;;;;;;;15.80;95.70;;;;;;4992012;28;19968;-95
2023/05/24 00:50:15;;;;;;;;;;;15.80;95.70;;;;;;4995768;28;19960;-94
2023/05/24 00:52:41;;;;;;;;;;;15.80;95.70;;;;;;4991157;28;20429;-94
2023/05/24 00:55:07;;;;;;;;;;;15.80;95.70;;;;;;4994263;28;19992;-93
2023/05/24 00:57:35;;;;;;;;;;;15.80;95.70;;;;;;4989904;28;19918;-95
2023/05/24 01:00:01;;;;;;;;;;;15.80;95.70;;;;;;4995109;28;19918;-94
2023/05/24 01:02:27;;;;;;;;;;;15.70;95.70;;;;;;4995217;28;19909;-95
2023/05/24 01:04:55;;;;;;;;;;;15.80;95.60;;;;;;4995005;28;20343;-96
2023/05/24 01:07:27;;;;;;;;;;;15.80;95.60;;;;;;4996027;28;19955;-95
2023/05/24 01:10:06;;;;;;;;;;;15.80;95.60;;;;;;5011171;28;20417;-94
2023/05/24 01:12:39;;;;;;;;;;;15.70;95.60;;;;;;5010632;28;19909;-96
2023/05/24 01:15:21;;;;;;;;;;;15.70;95.60;;;;;;4995643;28;20369;-96
2023/05/24 01:18:04;;;;;;;;;;;15.80;95.90;;;;;;4995238;28;19910;-95
2023/05/24 01:20:32;;;;;;;;;;;15.70;95.60;;;;;;4995042;28;20274;-95
2023/05/24 01:23:16;;;;;;;;;;;15.70;95.60;;;;;;4992612;28;19917;-94
2023/05/24 01:25:48;;;;;;;;;;;15.70;95.50;;;;;;5008585;28;19996;-95
2023/05/24 01:28:15;;;;;;;;;;;15.70;95.50;;;;;;5010442;28;19910;-95
2023/05/24 01:30:41;;;;;;;;;;;15.70;95.50;;;;;;4995095;28;19909;-94
2023/05/24 01:33:10;;;;;;;;;;;15.70;95.50;;;;;;5006473;28;19949;-95
2023/05/24 01:35:40;;;;;;;;;;;15.70;95.50;;;;;;4989137;28;20041;-94
2023/05/24 01:38:06;;;;;;;;;;;15.70;95.40;;;;;;4999205;28;20562;-93
2023/05/24 01:40:51;;;;;;;;;;;15.70;95.30;;;;;;4998626;28;19955;-95
2023/05/24 01:43:22;;;;;;;;;;;15.60;95.30;;;;;;4998631;28;19933;-96
2023/05/24 01:45:47;;;;;;;;;;;15.70;95.30;;;;;;4998644;28;19909;-96
2023/05/24 01:48:32;;;;;;;;;;;15.70;95.20;;;;;;5019089;28;20000;-95
2023/05/24 01:51:00;;;;;;;;;;;15.70;95.30;;;;;;4995333;28;19913;-95
2023/05/24 01:53:46;;;;;;;;;;;15.70;95.20;;;;;;5001078;28;20019;-96
2023/05/24 01:56:12;;;;;;;;;;;15.70;95.20;;;;;;4998229;28;20332;-95
2023/05/24 01:58:39;;;;;;;;;;;15.70;95.20;;;;;;4998823;28;19913;-95
2023/05/24 02:01:25;;;;;;;;;;;15.70;95.10;;;;;;4998577;28;19914;-94
2023/05/24 02:03:51;;;;;;;;;;;15.70;95.10;;;;;;4998276;28;19913;-96
2023/05/24 02:06:37;;;;;;;;;;;15.70;95.10;;;;;;4998707;28;19910;-95
2023/05/24 02:09:23;;;;;;;;;;;15.70;95.00;;;;;;4999539;28;19925;-96
2023/05/24 02:11:49;;;;;;;;;;;15.70;95.00;;;;;;5012728;28;19913;-96
2023/05/24 02:14:38;;;;;;;;;;;15.70;95.00;;;;;;4997425;28;19936;-96
2023/05/24 02:17:27;;;;;;;;;;;15.60;95.00;;;;;;4997737;28;19956;-96
2023/05/24 02:19:54;;;;;;;;;;;15.60;94.90;;;;;;5011355;28;19923;-95
2023/05/24 02:22:40;;;;;;;;;;;15.70;95.00;;;;;;4997774;28;19927;-96
2023/05/24 02:25:15;;;;;;;;;;;15.60;95.30;;;;;;4998078;28;19913;-95
2023/05/24 02:27:45;;;;;;;;;;;15.60;95.00;;;;;;4998927;28;19913;-95
2023/05/24 02:30:31;;;;;;;;;;;15.70;95.00;;;;;;5000987;28;19926;-96
2023/05/24 02:32:57;;;;;;;;;;;15.70;95.00;;;;;;4998242;28;19910;-96
2023/05/24 02:35:42;;;;;;;;;;;15.60;95.00;;;;;;4997996;28;20273;-95
2023/05/24 02:38:08;;;;;;;;;;;15.60;94.90;;;;;;4997947;28;19913;-95
2023/05/24 02:40:34;;;;;;;;;;;15.60;94.90;;;;;;5006128;28;19922;-95
2023/05/24 02:43:00;;;;;;;;;;;15.60;94.90;;;;;;4997410;28;19921;-96
2023/05/24 02:45:26;;;;;;;;;;;15.60;94.90;;;;;;4997658;28;20278;-96
2023/05/24 02:47:55;;;;;;;;;;;15.60;95.30;;;;;;4998757;28;19917;-95
2023/05/24 02:50:20;;;;;;;;;;;15.60;94.90;;;;;;4998383;28;19913;-96
2023/05/24 02:52:46;;;;;;;;;;;15.60;94.90;;;;;;4997847;28;19920;-95
2023/05/24 02:55:12;;;;;;;;;;;15.60;94.90;;;;;;4996904;28;19922;-95
2023/05/24 02:57:38;;;;;;;;;;;15.60;94.90;;;;;;4997581;28;19909;-95
2023/05/24 03:00:10;;;;;;;;;;;15.60;94.90;;;;;;4997706;28;20366;-96
2023/05/24 03:02:37;;;;;;;;;;;15.60;94.80;;;;;;4997524;28;19922;-95
2023/05/24 03:05:05;;;;;;;;;;;15.60;94.80;;;;;;4997452;28;19941;-95
2023/05/24 03:07:32;;;;;;;;;;;15.60;94.80;;;;;;5013653;28;19967;-95
2023/05/24 03:09:58;;;;;;;;;;;15.60;94.90;;;;;;4997385;28;19910;-96
2023/05/24 03:12:24;;;;;;;;;;;15.60;94.80;;;;;;5013766;28;19909;-95
2023/05/24 03:14:50;;;;;;;;;;;15.60;94.80;;;;;;4996614;28;19913;-94
2023/05/24 03:17:16;;;;;;;;;;;15.60;94.80;;;;;;4995192;28;19924;-95
2023/05/24 03:20:03;;;;;;;;;;;15.50;94.70;;;;;;4997220;28;19969;-96
2023/05/24 03:22:28;;;;;;;;;;;15.50;94.60;;;;;;5007234;28;20007;-95
2023/05/24 03:24:55;;;;;;;;;;;15.60;94.60;;;;;;5008812;28;19965;-95
2023/05/24 03:27:20;;;;;;;;;;;15.60;94.60;;;;;;4998083;28;20322;-94
2023/05/24 03:30:06;;;;;;;;;;;15.50;94.50;;;;;;4997220;28;20076;-95
2023/05/24 03:32:52;;;;;;;;;;;15.50;94.50;;;;;;5010133;28;19963;-96
2023/05/24 03:35:17;;;;;;;;;;;15.50;94.50;;;;;;5012996;28;19977;-95
2023/05/24 03:38:03;;;;;;;;;;;15.50;94.40;;;;;;4996777;28;20011;-96
2023/05/24 03:40:31;;;;;;;;;;;15.50;94.80;;;;;;4990948;28;19917;-95
2023/05/24 03:42:57;;;;;;;;;;;15.50;94.50;;;;;;4996842;28;19941;-95
2023/05/24 03:45:42;;;;;;;;;;;15.50;94.40;;;;;;4996330;28;20015;-96
2023/05/24 03:48:08;;;;;;;;;;;15.50;94.40;;;;;;4996193;28;19917;-96
2023/05/24 03:50:34;;;;;;;;;;;15.50;94.30;;;;;;4996772;28;19918;-95
2023/05/24 03:53:00;;;;;;;;;;;15.50;94.30;;;;;;4996577;28;19914;-96
2023/05/24 03:55:46;;;;;;;;;;;15.50;94.30;;;;;;4995904;28;19924;-96
2023/05/24 03:58:32;;;;;;;;;;;15.50;94.40;;;;;;4996548;28;19910;-95
2023/05/24 04:01:18;;;;;;;;;;;15.50;94.30;;;;;;4996172;28;20008;-96
2023/05/24 04:03:46;;;;;;;;;;;15.50;94.40;;;;;;5013160;28;19988;-95
2023/05/24 04:06:12;;;;;;;;;;;15.50;94.40;;;;;;4994290;28;19949;-95
2023/05/24 04:08:40;;;;;;;;;;;15.50;94.40;;;;;;5013075;28;19937;-95
2023/05/24 04:11:07;;;;;;;;;;;15.50;94.30;;;;;;4996420;28;20310;-95
2023/05/24 04:13:33;;;;;;;;;;;15.50;94.30;;;;;;5013196;28;20513;-95
2023/05/24 04:15:59;;;;;;;;;;;15.50;94.30;;;;;;4996350;28;19910;-94
2023/05/24 04:18:45;;;;;;;;;;;15.50;94.30;;;;;;4995605;28;19913;-95
2023/05/24 04:21:11;;;;;;;;;;;15.50;94.20;;;;;;4996002;28;19932;-95
2023/05/24 04:23:59;;;;;;;;;;;15.40;94.20;;;;;;4998521;28;20266;-96
2023/05/24 04:26:47;;;;;;;;;;;15.40;94.20;;;;;;4996024;28;19916;-96
2023/05/24 04:29:32;;;;;;;;;;;15.60;94.20;;;;;;4994709;28;19916;-96
2023/05/24 04:32:50;;;;;;;;;;;15.40;94.10;;;;;;5012786;28;19924;-96
2023/05/24 04:35:47;;;;;;;;;;;15.40;94.10;;;;;;5007213;28;19972;-95
2023/05/24 04:38:33;;;;;;;;;;;15.40;94.10;;;;;;4995370;28;19913;-96
2023/05/24 04:41:21;;;;;;;;;;;15.40;94.20;;;;;;5012725;28;19933;-96
2023/05/24 04:44:12;;;;;;;;;;;15.40;94.10;;;;;;5013645;28;19965;-96
2023/05/24 04:47:01;;;;;;;;;;;15.40;94.10;;;;;;5005939;28;20005;-96
2023/05/24 04:49:46;;;;;;;;;;;15.40;94.10;;;;;;5012638;28;20374;-96
2023/05/24 04:52:12;;;;;;;;;;;15.40;94.10;;;;;;4995753;28;19920;-96
2023/05/24 04:55:01;;;;;;;;;;;15.40;94.10;;;;;;4998698;28;19913;-95
2023/05/24 04:58:03;;;;;;;;;;;15.40;94.10;;;;;;5004854;28;19910;-95
2023/05/24 05:00:50;;;;;;;;;;;15.40;94.00;;;;;;5009859;28;19917;-95
2023/05/24 05:03:17;;;;;;;;;;;15.40;94.00;;;;;;5011360;28;19959;-96
2023/05/24 05:05:44;;;;;;;;;;;15.40;94.00;;;;;;4979244;28;20325;-94
2023/05/24 05:08:09;;;;;;;;;;;15.40;94.00;;;;;;4991359;28;19924;-96
2023/05/24 05:10:36;;;;;;;;;;;15.40;94.00;;;;;;4991730;28;19913;-95
2023/05/24 05:13:21;;;;;;;;;;;15.30;93.90;;;;;;4979060;28;19923;-96
2023/05/24 05:15:47;;;;;;;;;;;15.40;93.90;;;;;;4992405;28;19917;-96
2023/05/24 05:18:13;;;;;;;;;;;15.40;93.90;;;;;;4993983;28;19914;-95
2023/05/24 05:20:42;;;;;;;;;;;15.40;93.80;;;;;;5013030;28;19917;-95
2023/05/24 05:23:25;;;;;;;;;;;15.40;93.80;;;;;;4990863;28;19922;-95
2023/05/24 05:25:59;;;;;;;;;;;15.30;93.70;;;;;;4994065;28;20294;-96
2023/05/24 05:28:45;;;;;;;;;;;15.40;93.70;;;;;;4999843;28;19913;-96
2023/05/24 05:31:31;;;;;;;;;;;15.40;93.70;;;;;;5012797;28;20270;-95
2023/05/24 05:34:01;;;;;;;;;;;15.40;93.70;;;;;;5013207;28;19909;-96
2023/05/24 05:36:46;;;;;;;;;;;15.40;93.70;;;;;;4995777;28;19914;-95
2023/05/24 05:39:15;;;;;;;;;;;15.40;93.70;;;;;;4994581;28;20413;-96
2023/05/24 05:41:43;;;;;;;;;;;15.40;93.60;;;;;;5013226;28;19909;-96
2023/05/24 05:44:49;;;;;;;;;;;15.40;93.60;;;;;;4994370;28;19925;-95
2023/05/24 05:47:35;;;;;;;;;;;15.40;93.60;;;;;;5005536;28;19917;-96
2023/05/24 05:50:38;;;;;;;;;;;15.40;93.60;;;;;;4998202;28;19914;-94
2023/05/24 05:53:24;;;;;;;;;;;15.40;93.50;;;;;;5012342;28;20401;-96
2023/05/24 05:56:09;;;;;;;;;;;15.40;93.50;;;;;;4979727;28;19914;-96
2023/05/24 05:58:37;;;;;;;;;;;15.40;93.50;;;;;;5008162;28;19913;-96
2023/05/24 06:01:41;;;;;;;;;;;15.40;93.50;;;;;;5006600;28;20371;-95
2023/05/24 06:04:49;;;;;;;;;;;15.40;93.50;;;;;;5012775;28;19913;-95
2023/05/24 06:07:37;;;;;;;;;;;15.40;93.50;;;;;;5011505;28;20271;-96
2023/05/24 06:10:41;;;;;;;;;;;15.40;93.50;;;;;;5011873;28;19929;-96
2023/05/24 06:13:28;;;;;;;;;;;15.40;93.50;;;;;;5009714;28;19963;-95
2023/05/24 06:15:54;;;;;;;;;;;15.40;93.40;;;;;;5008249;28;19915;-96
2023/05/24 06:18:20;;;;;;;;;;;15.40;93.80;;;;;;4990463;28;19940;-94
2023/05/24 06:20:46;;;;;;;;;;;15.40;93.40;;;;;;5008956;28;20362;-95
2023/05/24 06:23:31;;;;;;;;;;;15.40;93.30;;;;;;4981010;28;19925;-96
2023/05/24 06:26:17;;;;;;;;;;;15.40;93.30;;;;;;5003942;28;19917;-95
2023/05/24 06:28:45;;;;;;;;;;;15.40;93.20;;;;;;5011609;28;19953;-95
2023/05/24 06:31:31;;;;;;;;;;;15.40;93.20;;;;;;4983031;28;19937;-96
2023/05/24 06:33:57;;;;;;;;;;;15.40;93.20;;;;;;5015061;28;19944;-96
2023/05/24 06:36:23;;;;;;;;;;;15.40;93.20;;;;;;4994378;28;19964;-96
2023/05/24 06:39:09;;;;;;;;;;;15.40;93.20;;;;;;4995422;28;19964;-95
2023/05/24 06:41:58;;;;;;;;;;;15.40;93.10;;;;;;5009047;28;20385;-96
2023/05/24 06:44:42;;;;;;;;;;;15.40;93.10;;;;;;5015905;28;20025;-95
2023/05/24 06:47:08;;;;;;;;;;;15.40;93.00;;;;;;4999065;28;19992;-96
2023/05/24 06:49:53;;;;;;;;;;;15.40;93.00;;;;;;5001881;28;19964;-95
2023/05/24 06:52:22;;;;;;;;;;;15.60;93.00;;;;;;5011746;28;19916;-95
2023/05/24 06:55:08;;;;;;;;;;;15.40;93.00;;;;;;4981269;28;20008;-96
2023/05/24 06:57:39;;;;;;;;;;;15.40;93.00;;;;;;5001886;28;19955;-96
2023/05/24 07:00:15;;;;;;;;;;;15.40;93.00;;;;;;5014309;28;19918;-96
2023/05/24 07:02:45;;;;;;;;;;;15.40;93.00;;;;;;4991881;28;20115;-96
2023/05/24 07:05:34;;;;;;;;;;;15.40;93.00;;;;;;4995821;28;19945;-95
2023/05/24 07:08:08;;;;;;;;;;;15.40;93.00;;;;;;5012737;28;19910;-96
2023/05/24 07:10:34;;;;;;;;;;;15.40;92.90;;;;;;4997529;28;19975;-96
2023/05/24 07:13:00;;;;;;;;;;;15.40;92.90;;;;;;5010991;28;19914;-95
2023/05/24 07:15:26;;;;;;;;;;;15.50;93.00;;;;;;5011003;28;19914;-95
2023/05/24 07:18:11;;;;;;;;;;;15.50;93.00;;;;;;4981117;28;19934;-96
2023/05/24 07:20:42;;;;;;;;;;;15.50;92.90;;;;;;5010377;28;19917;-96
2023/05/24 07:23:10;;;;;;;;;;;15.50;92.90;;;;;;4994395;28;19921;-96
2023/05/24 07:25:56;;;;;;;;;;;15.40;92.90;;;;;;4993304;28;19924;-96
2023/05/24 07:28:46;;;;;;;;;;;15.50;92.80;;;;;;5014565;28;19913;-96
2023/05/24 07:31:12;;;;;;;;;;;15.50;92.80;;;;;;5012307;28;19910;-96
2023/05/24 07:33:38;;;;;;;;;;;15.50;92.80;;;;;;5011747;28;20299;-96
2023/05/24 07:36:04;;;;;;;;;;;15.40;92.80;;;;;;5009378;28;20004;-95
2023/05/24 07:38:50;;;;;;;;;;;15.50;92.80;;;;;;5009144;28;20400;-96
2023/05/24 07:41:18;;;;;;;;;;;15.50;92.70;;;;;;5012798;28;20243;-96
2023/05/24 07:43:44;;;;;;;;;;;15.50;92.70;;;;;;4992687;28;20425;-95
2023/05/24 07:46:26;;;;;;;;;;;15.50;92.60;;;;;;4993130;28;20036;-95
2023/05/24 07:48:55;;;;;;;;;;;15.50;92.60;;;;;;4985910;28;19913;-96
2023/05/24 07:51:21;;;;;;;;;;;15.50;92.60;;;;;;4997067;28;20036;-95
2023/05/24 07:54:07;;;;;;;;;;;15.50;92.50;;;;;;4997020;28;19917;-96
2023/05/24 07:56:36;;;;;;;;;;;15.50;92.50;;;;;;5007299;28;20314;-95
2023/05/24 07:59:05;;;;;;;;;;;15.50;92.50;;;;;;4981688;28;19964;-94
2023/05/24 08:01:51;;;;;;;;;;;15.60;92.50;;;;;;4997397;28;20417;-95
2023/05/24 08:04:37;;;;;;;;;;;15.50;92.40;;;;;;5011532;28;19921;-95
2023/05/24 08:07:22;;;;;;;;;;;15.50;92.40;;;;;;5000414;28;20347;-96
2023/05/24 08:09:57;;;;;;;;;;;15.60;92.40;;;;;;5011766;28;20187;-96
2023/05/24 08:12:25;;;;;;;;;;;15.60;92.40;;;;;;4987485;28;20560;-96
2023/05/24 08:14:51;;;;;;;;;;;15.50;92.30;;;;;;4980737;28;19921;-96
2023/05/24 08:17:19;;;;;;;;;;;15.50;92.30;;;;;;4994155;28;20586;-96
2023/05/24 08:19:45;;;;;;;;;;;15.60;92.30;;;;;;4979895;28;19968;-95
2023/05/24 08:22:11;;;;;;;;;;;15.60;92.30;;;;;;5008819;28;20386;-95
2023/05/24 08:24:37;;;;;;;;;;;15.60;92.30;;;;;;5009177;28;20274;-94
2023/05/24 08:27:23;;;;;;;;;;;15.60;92.30;;;;;;4993331;28;19920;-95
2023/05/24 08:30:29;;;;;;;;;;;15.60;92.30;;;;;;5010447;28;19924;-96
2023/05/24 08:33:19;;;;;;;;;;;15.60;92.30;;;;;;5012979;28;20346;-95
2023/05/24 08:35:45;;;;;;;;;;;15.60;92.20;;;;;;5011270;28;19909;-95
2023/05/24 08:38:11;;;;;;;;;;;15.60;92.30;;;;;;4995073;28;19918;-95
2023/05/24 08:40:56;;;;;;;;;;;15.60;92.20;;;;;;5005971;28;19921;-96
2023/05/24 08:43:45;;;;;;;;;;;15.60;92.20;;;;;;5011103;28;19910;-95
2023/05/24 08:46:11;;;;;;;;;;;15.60;92.20;;;;;;5000806;28;19940;-96
2023/05/24 08:48:57;;;;;;;;;;;15.60;92.20;;;;;;4988908;28;19917;-96
2023/05/24 08:51:27;;;;;;;;;;;15.60;92.30;;;;;;5012533;28;19917;-96
2023/05/24 08:54:13;;;;;;;;;;;15.60;92.20;;;;;;4989950;28;19919;-95
2023/05/24 08:56:59;;;;;;;;;;;15.60;92.20;;;;;;5011183;28;19928;-96
2023/05/24 08:59:32;;;;;;;;;;;15.60;92.20;;;;;;5013776;28;19924;-96
2023/05/24 09:02:10;;;;;;;;;;;15.60;92.10;;;;;;4994984;28;19913;-96
2023/05/24 09:04:38;;;;;;;;;;;15.60;92.20;;;;;;4992528;28;19918;-96
2023/05/24 09:07:25;;;;;;;;;;;15.60;92.20;;;;;;4992980;28;19949;-96
2023/05/24 09:09:59;;;;;;;;;;;15.60;92.20;;;;;;4996252;28;19910;-96
2023/05/24 09:12:45;;;;;;;;;;;15.60;92.20;;;;;;5002331;28;20008;-95
2023/05/24 09:15:32;;;;;;;;;;;15.60;92.10;;;;;;5011339;28;19916;-96
2023/05/24 09:17:59;;;;;;;;;;;15.60;92.10;;;;;;5009381;28;20274;-95
2023/05/24 09:20:31;;;;;;;;;;;15.60;92.10;;;;;;4978803;28;19922;-95
2023/05/24 09:23:16;;;;;;;;;;;15.60;92.10;;;;;;4975889;28;19926;-96
2023/05/24 09:25:46;;;;;;;;;;;15.60;92.10;;;;;;5001975;28;19917;-96
2023/05/24 09:28:17;;;;;;;;;;;15.60;92.10;;;;;;5009381;28;19914;-96
2023/05/24 09:31:03;;;;;;;;;;;15.60;92.00;;;;;;5012240;28;19921;-95
2023/05/24 09:33:51;;;;;;;;;;;15.60;92.00;;;;;;4995089;28;19917;-96
2023/05/24 09:36:19;;;;;;;;;;;15.60;92.00;;;;;;5011111;28;19996;-95
2023/05/24 09:39:08;;;;;;;;;;;15.60;91.90;;;;;;4998688;28;19917;-95
2023/05/24 09:41:56;;;;;;;;;;;15.60;91.90;;;;;;4994893;28;19929;-96
2023/05/24 09:44:28;;;;;;;;;;;15.60;91.90;;;;;;4994291;28;19915;-96
2023/05/24 09:47:00;;;;;;;;;;;15.60;91.90;;;;;;4995206;28;19914;-96
2023/05/24 09:49:25;;;;;;;;;;;15.60;91.90;;;;;;5011489;28;20032;-96
2023/05/24 09:51:51;;;;;;;;;;;15.60;92.00;;;;;;4988735;28;19945;-95
2023/05/24 09:54:24;;;;;;;;;;;15.60;91.90;;;;;;5015710;28;19917;-95
2023/05/24 09:56:51;;;;;;;;;;;15.60;91.90;;;;;;4999926;28;19914;-95
2023/05/24 09:59:19;;;;;;;;;;;15.60;91.90;;;;;;5018727;28;19913;-96
2023/05/24 10:01:45;;;;;;;;;;;15.60;91.80;;;;;;4990879;28;19913;-96
2023/05/24 10:04:12;;;;;;;;;;;15.60;91.80;;;;;;5016455;28;20004;-95
2023/05/24 10:06:41;;;;;;;;;;;15.60;91.70;;;;;;4998931;28;19957;-95
2023/05/24 10:09:08;;;;;;;;;;;15.60;91.80;;;;;;5010375;28;19921;-95
2023/05/24 10:11:40;;;;;;;;;;;15.60;91.70;;;;;;4993012;28;19914;-96
2023/05/24 10:14:08;;;;;;;;;;;15.60;91.70;;;;;;4997108;28;19914;-95
2023/05/24 10:16:35;;;;;;;;;;;15.60;91.70;;;;;;5014886;28;19910;-96
2023/05/24 10:19:03;;;;;;;;;;;15.60;91.70;;;;;;5014253;28;19996;-95
2023/05/24 10:21:37;;;;;;;;;;;15.60;91.60;;;;;;5014893;28;20389;-95
2023/05/24 10:24:05;;;;;;;;;;;15.60;91.60;;;;;;4996778;28;20177;-95
2023/05/24 10:26:33;;;;;;;;;;;15.70;91.60;;;;;;5015671;28;19913;-96
2023/05/24 10:29:04;;;;;;;;;;;15.70;91.60;;;;;;5015024;28;19914;-95
2023/05/24 10:31:50;;;;;;;;;;;15.70;91.60;;;;;;4999915;28;19910;-96
2023/05/24 10:34:15;;;;;;;;;;;15.60;91.60;;;;;;5015485;28;19910;-95
2023/05/24 10:36:43;;;;;;;;;;;15.60;91.60;;;;;;5016796;28;19909;-96
2023/05/24 10:39:11;;;;;;;;;;;15.70;91.60;;;;;;5015773;28;19914;-96
2023/05/24 10:41:45;;;;;;;;;;;15.70;91.50;;;;;;4998390;28;19984;-95
2023/05/24 10:44:15;;;;;;;;;;;15.70;91.60;;;;;;4996919;28;19910;-95
2023/05/24 10:47:00;;;;;;;;;;;15.70;91.60;;;;;;5014470;28;19909;-96
2023/05/24 10:49:25;;;;;;;;;;;15.70;91.60;;;;;;5012550;28;19917;-95
2023/05/24 10:51:59;;;;;;;;;;;15.70;91.60;;;;;;5014958;28;20313;-95
2023/05/24 10:54:26;;;;;;;;;;;15.70;91.50;;;;;;4985654;28;19914;-95
2023/05/24 10:56:52;;;;;;;;;;;15.70;91.50;;;;;;4999756;28;19913;-95
2023/05/24 10:59:36;;;;;;;;;;;15.60;91.50;;;;;;5003331;28;19924;-96
2023/05/24 11:02:04;;;;;;;;;;;15.70;91.50;;;;;;5007055;28;19918;-95
2023/05/24 11:04:36;;;;;;;;;;;15.70;91.50;;;;;;4989739;28;19973;-95
2023/05/24 11:07:25;;;;;;;;;;;15.70;91.50;;;;;;4978711;28;19925;-95
2023/05/24 11:10:17;;;;;;;;;;;15.70;91.30;;;;;;5003829;28;19921;-93
2023/05/24 11:12:43;;;;;;;;;;;15.70;91.30;;;;;;4997205;28;19917;-95
2023/05/24 11:15:29;;;;;;;;;;;15.70;91.30;;;;;;4997877;28;20282;-95
2023/05/24 11:18:13;;;;;;;;;;;15.70;91.20;;;;;;5000346;28;19909;-95
2023/05/24 11:20:41;;;;;;;;;;;15.70;91.20;;;;;;4996295;28;19925;-95
2023/05/24 11:23:08;;;;;;;;;;;15.70;91.10;;;;;;5014092;28;20273;-95
2023/05/24 11:25:36;;;;;;;;;;;15.70;91.10;;;;;;5012646;28;20385;-95
2023/05/24 11:28:02;;;;;;;;;;;15.70;91.20;;;;;;5012514;28;20362;-95
2023/05/24 11:30:27;;;;;;;;;;;15.70;91.10;;;;;;5005748;28;19935;-95
2023/05/24 11:32:53;;;;;;;;;;;15.70;91.10;;;;;;5005952;28;20004;-95
2023/05/24 11:35:21;;;;;;;;;;;15.70;91.00;;;;;;4987219;28;19917;-94
2023/05/24 11:37:57;;;;;;;;;;;15.70;91.00;;;;;;4999099;28;19964;-96
2023/05/24 11:40:46;;;;;;;;;;;15.70;90.90;;;;;;4998479;28;19925;-95
2023/05/24 11:43:21;;;;;;;;;;;15.70;90.90;;;;;;4998872;28;19909;-94
2023/05/24 11:46:08;;;;;;;;;;;15.70;90.80;;;;;;4997939;28;19976;-94
2023/05/24 11:48:37;;;;;;;;;;;15.70;90.80;;;;;;4996596;28;19910;-95
2023/05/24 11:51:04;;;;;;;;;;;15.70;90.90;;;;;;4995019;28;19909;-95
2023/05/24 11:53:30;;;;;;;;;;;15.70;90.90;;;;;;5009498;28;19917;-95
2023/05/24 11:55:57;;;;;;;;;;;15.70;90.80;;;;;;5005393;28;19909;-95
2023/05/24 11:58:30;;;;;;;;;;;15.70;90.80;;;;;;4997747;28;19918;-95
2023/05/24 12:00:55;;;;;;;;;;;15.70;90.80;;;;;;4983076;28;19929;-95
2023/05/24 12:03:21;;;;;;;;;;;15.70;90.80;;;;;;5013295;28;19909;-96
2023/05/24 12:05:48;;;;;;;;;;;15.70;90.80;;;;;;4982834;28;19917;-95
2023/05/24 12:08:16;;;;;;;;;;;15.70;90.90;;;;;;5010227;28;19910;-95
2023/05/24 12:10:42;;;;;;;;;;;15.70;90.80;;;;;;4999842;28;19909;-94
2023/05/24 12:13:24;;;;;;;;;;;15.70;90.90;;;;;;5012957;28;19955;-96
2023/05/24 12:15:51;;;;;;;;;;;15.70;90.80;;;;;;4979187;28;19920;-95
2023/05/24 12:18:38;;;;;;;;;;;15.70;90.80;;;;;;4989861;28;20001;-95
2023/05/24 12:21:13;;;;;;;;;;;15.70;90.80;;;;;;5011879;28;20609;-95
2023/05/24 12:23:39;;;;;;;;;;;15.70;90.80;;;;;;5008695;28;20012;-95
2023/05/24 12:26:04;;;;;;;;;;;15.70;90.70;;;;;;4991328;28;19963;-95
2023/05/24 12:28:37;;;;;;;;;;;15.70;90.80;;;;;;4995741;28;20006;-94
2023/05/24 12:31:05;;;;;;;;;;;15.70;90.80;;;;;;5005258;28;19967;-95
2023/05/24 12:33:32;;;;;;;;;;;15.70;90.70;;;;;;4989058;28;19979;-95
2023/05/24 12:35:57;;;;;;;;;;;15.70;90.60;;;;;;5008540;28;20247;-95
2023/05/24 12:38:24;;;;;;;;;;;15.70;90.70;;;;;;5014192;28;19910;-96
2023/05/24 12:41:11;;;;;;;;;;;15.70;90.70;;;;;;4988407;28;20378;-96
2023/05/24 12:44:15;;;;;;;;;;;15.70;90.70;;;;;;5014029;28;19913;-96
2023/05/24 12:47:04;;;;;;;;;;;15.70;90.70;;;;;;5011760;28;19910;-96
2023/05/24 12:49:39;;;;;;;;;;;15.70;90.70;;;;;;5006542;28;19909;-96
2023/05/24 12:52:21;;;;;;;;;;;15.70;90.80;;;;;;4997597;28;19961;-96
2023/05/24 12:55:08;;;;;;;;;;;15.70;90.80;;;;;;5005818;28;19998;-96
2023/05/24 12:58:05;;;;;;;;;;;15.70;91.10;;;;;;5006515;28;20288;-96
2023/05/24 13:00:30;;;;;;;;;;;15.70;90.80;;;;;;4998286;28;20378;-95
2023/05/24 13:02:58;;;;;;;;;;;15.70;90.80;;;;;;4989171;28;20408;-95
2023/05/24 13:05:30;;;;;;;;;;;15.70;90.90;;;;;;5013860;28;19910;-96
2023/05/24 13:08:16;;;;;;;;;;;15.60;90.80;;;;;;4980168;28;19917;-96
2023/05/24 13:11:23;;;;;;;;;;;15.70;90.90;;;;;;5011752;28;19909;-96
2023/05/24 13:14:27;;;;;;;;;;;15.70;90.90;;;;;;5004530;28;20044;-96
2023/05/24 13:17:01;;;;;;;;;;;15.70;90.80;;;;;;5012079;28;19913;-96
2023/05/24 13:19:47;;;;;;;;;;;15.70;90.80;;;;;;4986151;28;20019;-96
2023/05/24 13:22:36;;;;;;;;;;;15.70;90.80;;;;;;5008020;28;19918;-95
2023/05/24 13:25:03;;;;;;;;;;;15.70;90.70;;;;;;5012869;28;19909;-96
2023/05/24 13:27:30;;;;;;;;;;;15.70;90.60;;;;;;4997053;28;19914;-95
2023/05/24 13:30:17;;;;;;;;;;;15.70;90.70;;;;;;5000138;28;20313;-96
2023/05/24 13:33:07;;;;;;;;;;;15.70;90.60;;;;;;5004338;28;19937;-96
2023/05/24 13:35:32;;;;;;;;;;;15.70;90.50;;;;;;5005722;28;19910;-95
2023/05/24 13:37:58;;;;;;;;;;;15.70;90.50;;;;;;4997178;28;19917;-95
2023/05/24 13:40:47;;;;;;;;;;;15.70;90.50;;;;;;5004379;28;20291;-95
2023/05/24 13:43:15;;;;;;;;;;;15.70;90.40;;;;;;5011630;28;19910;-96
2023/05/24 13:45:43;;;;;;;;;;;15.70;90.40;;;;;;4981356;28;19917;-96
2023/05/24 13:48:09;;;;;;;;;;;15.70;90.40;;;;;;5015694;28;19909;-96
2023/05/24 13:50:35;;;;;;;;;;;15.70;90.40;;;;;;4998981;28;19913;-96
2023/05/24 13:53:21;;;;;;;;;;;15.70;90.30;;;;;;5013637;28;19917;-95
2023/05/24 13:56:10;;;;;;;;;;;15.70;90.30;;;;;;4998946;28;19913;-96
2023/05/24 13:58:56;;;;;;;;;;;15.70;90.30;;;;;;5013926;28;19909;-95
2023/05/24 14:01:46;;;;;;;;;;;15.70;90.30;;;;;;5012179;28;19940;-95
2023/05/24 14:04:34;;;;;;;;;;;15.70;90.20;;;;;;5012007;28;19916;-96
2023/05/24 14:07:20;;;;;;;;;;;15.70;90.20;;;;;;5012786;28;19909;-95
2023/05/24 14:10:08;;;;;;;;;;;15.70;90.60;;;;;;4999519;28;19909;-95
2023/05/24 14:12:35;;;;;;;;;;;15.70;90.20;;;;;;5015401;28;19910;-95
2023/05/24 14:15:01;;;;;;;;;;;15.70;90.20;;;;;;4998814;28;20007;-94
2023/05/24 14:17:27;;;;;;;;;;;15.70;90.20;;;;;;4999176;28;19960;-94
2023/05/24 14:20:15;;;;;;;;;;;15.70;90.10;;;;;;4998284;28;20394;-96
2023/05/24 14:23:18;;;;;;;;;;;15.70;90.10;;;;;;5009171;28;19917;-96
2023/05/24 14:25:45;;;;;;;;;;;15.70;90.10;;;;;;5010706;28;19920;-95
2023/05/24 14:28:31;;;;;;;;;;;15.70;90.00;;;;;;4990901;28;19921;-96
2023/05/24 14:31:16;;;;;;;;;;;15.70;90.00;;;;;;4996529;28;19910;-96
2023/05/24 14:33:42;;;;;;;;;;;15.70;90.00;;;;;;4998590;28;19956;-96
2023/05/24 14:36:25;;;;;;;;;;;15.70;90.00;;;;;;4983469;28;19999;-96
2023/05/24 14:38:50;;;;;;;;;;;15.70;90.00;;;;;;4998378;28;19925;-96
2023/05/24 14:41:36;;;;;;;;;;;15.70;89.90;;;;;;4992719;28;19926;-96
2023/05/24 14:44:02;;;;;;;;;;;15.70;90.00;;;;;;5006172;28;19909;-95
2023/05/24 14:46:27;;;;;;;;;;;15.70;89.90;;;;;;5004244;28;19973;-96
2023/05/24 14:48:53;;;;;;;;;;;15.70;90.00;;;;;;5003612;28;19913;-96
2023/05/24 14:51:39;;;;;;;;;;;15.70;89.90;;;;;;4982316;28;19913;-96
2023/05/24 14:54:04;;;;;;;;;;;15.70;89.90;;;;;;5008249;28;19909;-96
2023/05/24 14:56:30;;;;;;;;;;;15.70;89.90;;;;;;5011718;28;20378;-96
2023/05/24 14:58:57;;;;;;;;;;;15.70;89.80;;;;;;4997775;28;20425;-96
2023/05/24 15:01:23;;;;;;;;;;;15.70;89.70;;;;;;4992654;28;19917;-96